Golar Kelvin — V7DE2 — position and weather

sailwx.info

Track history (hours):
 
Tides and Currents Weather Stations Pressure Air Temp Water Temp Dewpoint Dewpoint Depression Visibility Wind Speed Wind Dir Waves Ship Positions

Golar Kelvin

Last reported at 2018-Jan-02 21:08 UTC. Time now 2018-Jan-18 07:21 UTC.
Position N 04°44' E 001°10'.
Warning: this ship's position is 15 days out of date.

Length 289 m; draft 9 m.

Type: Ship (hazmat cat D). MMSI: 538005374.

Date/timePositionNaut miles runAvg speedWind from/ knotsBaromVisibWave heightAir tempDewpointWater temp
2018-Jan-02 21:08N 04°44' E 001°10'920.4
2018-Jan-02 20:42N 04°50' E 001°03'420.6
2018-Jan-02 20:31N 04°52' E 000°60'1020.6
2018-Jan-02 20:00N 04°58' E 000°51'1020.4
2018-Jan-02 19:30N 05°04' E 000°43'1020.2
2018-Jan-02 19:00N 05°10' E 000°35'1020.1
2018-Jan-02 18:30N 05°16' E 000°27'1019.8
2018-Jan-02 18:00N 05°22' E 000°19'1019.4
2018-Jan-02 17:30N 05°27' E 000°11'817.0
2018-Jan-02 17:01N 05°32' E 000°04'4 7.7
2018-Jan-02 16:31N 05°34' E 000°00'0 0.1
2018-Jan-02 15:58N 05°34' E 000°00'0 0.0
2018-Jan-02 15:28N 05°34' E 000°00'0 0.0
2018-Jan-02 14:58N 05°34' E 000°00'0 0.0
2018-Jan-02 14:28N 05°34' E 000°00'0 0.0
2018-Jan-02 13:58N 05°34' E 000°00'0 0.0
2018-Jan-02 13:28N 05°34' E 000°00'0 0.0
2018-Jan-02 12:58N 05°34' E 000°00'0 0.0
2018-Jan-02 12:28N 05°34' E 000°00'0 0.0
2018-Jan-02 11:58N 05°34' E 000°00'0 0.1
2018-Jan-02 11:28N 05°34' E 000°00'0 0.0
2018-Jan-02 10:58N 05°34' E 000°00'0 0.1
2018-Jan-02 10:28N 05°34' E 000°00'0 0.2
2018-Jan-02 09:58N 05°34' E 000°00'0 0.1
2018-Jan-02 09:28N 05°33' E 000°00'0 0.1
2018-Jan-02 08:28N 05°33' E 000°00'0 0.0
2018-Jan-02 07:58N 05°33' E 000°00'0 0.2
2018-Jan-02 07:29N 05°34' E 000°00'1 2.1
2018-Jan-02 07:00N 05°33' E 000°00'2 4.5
2018-Jan-02 06:30N 05°31' W 000°01'3 5.9
2018-Jan-02 06:00N 05°28' W 000°03'612.3
2018-Jan-02 05:30N 05°23' W 000°06'2414.6
2018-Jan-02 03:51N 05°02' W 000°18'816.1
2018-Jan-02 03:19N 04°55' W 000°22'2816.5
2018-Jan-02 01:37N 04°30' W 000°36'  
2017-Dec-29 23:58N 09°05' W 017°23'5817.6
2017-Dec-29 20:41N 09°50' W 018°00'317.4
2017-Dec-29 20:30N 09°53' W 018°02'6617.2
2017-Dec-29 16:41N 10°44' W 018°44'316.6
2017-Dec-29 16:30N 10°46' W 018°45'  
2017-Dec-27 03:20N 27°35' W 015°14'516.5
2017-Dec-27 03:00N 27°39' W 015°11'816.7
2017-Dec-27 02:31N 27°47' W 015°08'816.4
2017-Dec-27 02:01N 27°55' W 015°05'816.3
2017-Dec-27 01:31N 28°03' W 015°02'816.2
2017-Dec-27 01:01N 28°10' W 014°59'816.1
2017-Dec-27 00:31N 28°18' W 014°56'816.3
2017-Dec-27 00:01N 28°26' W 014°53'816.2
2017-Dec-26 23:31N 28°34' W 014°51'816.6
2017-Dec-26 23:00N 28°42' W 014°49'  
Track history (hours):
 
Tides and Currents Weather Stations Pressure Air Temp Water Temp Dewpoint Dewpoint Depression Visibility Wind Speed Wind Dir Waves Ship Positions

Golar Kelvin

Last reported at 2018-Jan-02 21:08 UTC. Time now 2018-Jan-18 07:21 UTC.
Position N 04°44' E 001°10'.
Warning: this ship's position is 15 days out of date.

Length 289 m; draft 9 m.

Type: Ship (hazmat cat D). MMSI: 538005374.

Date/timePositionNaut miles runAvg speedWind from/ knotsBaromVisibWave heightAir tempDewpointWater temp
2018-Jan-02 21:08N 04°44' E 001°10'920.4
2018-Jan-02 20:42N 04°50' E 001°03'420.6
2018-Jan-02 20:31N 04°52' E 000°60'1020.6
2018-Jan-02 20:00N 04°58' E 000°51'1020.4
2018-Jan-02 19:30N 05°04' E 000°43'1020.2
2018-Jan-02 19:00N 05°10' E 000°35'1020.1
2018-Jan-02 18:30N 05°16' E 000°27'1019.8
2018-Jan-02 18:00N 05°22' E 000°19'1019.4
2018-Jan-02 17:30N 05°27' E 000°11'817.0
2018-Jan-02 17:01N 05°32' E 000°04'4 7.7
2018-Jan-02 16:31N 05°34' E 000°00'0 0.1
2018-Jan-02 15:58N 05°34' E 000°00'0 0.0
2018-Jan-02 15:28N 05°34' E 000°00'0 0.0
2018-Jan-02 14:58N 05°34' E 000°00'0 0.0
2018-Jan-02 14:28N 05°34' E 000°00'0 0.0
2018-Jan-02 13:58N 05°34' E 000°00'0 0.0
2018-Jan-02 13:28N 05°34' E 000°00'0 0.0
2018-Jan-02 12:58N 05°34' E 000°00'0 0.0
2018-Jan-02 12:28N 05°34' E 000°00'0 0.0
2018-Jan-02 11:58N 05°34' E 000°00'0 0.1
2018-Jan-02 11:28N 05°34' E 000°00'0 0.0
2018-Jan-02 10:58N 05°34' E 000°00'0 0.1
2018-Jan-02 10:28N 05°34' E 000°00'0 0.2
2018-Jan-02 09:58N 05°34' E 000°00'0 0.1
2018-Jan-02 09:28N 05°33' E 000°00'0 0.1
2018-Jan-02 08:28N 05°33' E 000°00'0 0.0
2018-Jan-02 07:58N 05°33' E 000°00'0 0.2
2018-Jan-02 07:29N 05°34' E 000°00'1 2.1
2018-Jan-02 07:00N 05°33' E 000°00'2 4.5
2018-Jan-02 06:30N 05°31' W 000°01'3 5.9
2018-Jan-02 06:00N 05°28' W 000°03'612.3
2018-Jan-02 05:30N 05°23' W 000°06'2414.6
2018-Jan-02 03:51N 05°02' W 000°18'816.1
2018-Jan-02 03:19N 04°55' W 000°22'2816.5
2018-Jan-02 01:37N 04°30' W 000°36'  
2017-Dec-29 23:58N 09°05' W 017°23'5817.6
2017-Dec-29 20:41N 09°50' W 018°00'317.4
2017-Dec-29 20:30N 09°53' W 018°02'6617.2
2017-Dec-29 16:41N 10°44' W 018°44'316.6
2017-Dec-29 16:30N 10°46' W 018°45'  
2017-Dec-27 03:20N 27°35' W 015°14'516.5
2017-Dec-27 03:00N 27°39' W 015°11'816.7
2017-Dec-27 02:31N 27°47' W 015°08'816.4
2017-Dec-27 02:01N 27°55' W 015°05'816.3
2017-Dec-27 01:31N 28°03' W 015°02'816.2
2017-Dec-27 01:01N 28°10' W 014°59'816.1
2017-Dec-27 00:31N 28°18' W 014°56'816.3
2017-Dec-27 00:01N 28°26' W 014°53'816.2
2017-Dec-26 23:31N 28°34' W 014°51'816.6
2017-Dec-26 23:00N 28°42' W 014°49'  

Dump ship's entire track history